Cerquilho, Brazil
Current Conditions -  °F | °C
As of 8:00 AM on Monday 20 Oct 2014 (Local Time) from SBKP Reporting Station
Clear Clear  
Wind Chill: 70°   Ceiling: Unl
Heat Index: 70°   Visibility: 5mi
Dew Point: 64°   Wind: 14mph
Humidity: 83%   Direction: 250°WSW
Pressure: 30.03"   Gusts: NA
Location:  23.15°S, 47.75°W
Report Text: SBKP 201100Z 25012KT 8000 NSC 21/18 Q1017
Loading
Personal Weather Stations






























Interactive Weather Map
Tropical Storm Tracking
New forecast layout! Learn more

10-Day Weather Forecast

Advertisements
Track Severe Weather on mobile